<?xml version="1.0" encoding="UTF-8" standalone="no" ?>
<gpx xmlns="http://www.topografix.com/GPX/1/1" xmlns:xsi="http://www.w3.org/2001/XMLSchema-instance" xsi:schemaLocation="http://www.topografix.com/GPX/1/1 http://www.topografix.com/GPX/1/1/gpx.xsd" version="1.1" creator="VisuGPX - https://www.visugpx.com">
  <metadata>
    <name>[Belledone] Refuge Oule - Refuge Premier Valloire</name>
  </metadata>
  <trk>
    <name><![CDATA[[Belledone] Refuge Oule - Refuge Premier Valloire_1]]></name>
    <trkseg>
      <trkpt lat="45.31375" lon="6.13381">
        <ele>1769</ele>
        <time>2021-08-25T18:52:57Z</time>
      </trkpt>
      <trkpt lat="45.31309" lon="6.1348">
        <ele>1841</ele>
        <time>2021-08-25T18:55:05Z</time>
      </trkpt>
      <trkpt lat="45.31181" lon="6.13634">
        <ele>1960</ele>
        <time>2021-08-25T18:58:49Z</time>
      </trkpt>
      <trkpt lat="45.31104" lon="6.13723">
        <ele>2010</ele>
        <time>2021-08-25T19:01:01Z</time>
      </trkpt>
      <trkpt lat="45.31003" lon="6.14062">
        <ele>2100</ele>
        <time>2021-08-25T19:06:47Z</time>
      </trkpt>
      <trkpt lat="45.30876" lon="6.14401">
        <ele>2197</ele>
        <time>2021-08-25T19:12:47Z</time>
      </trkpt>
      <trkpt lat="45.30723" lon="6.14699">
        <ele>2359</ele>
        <time>2021-08-25T19:18:34Z</time>
      </trkpt>
      <trkpt lat="45.30597" lon="6.14767">
        <ele>2409</ele>
        <time>2021-08-25T19:21:33Z</time>
      </trkpt>
      <trkpt lat="45.30466" lon="6.1479">
        <ele>2460</ele>
        <time>2021-08-25T19:24:30Z</time>
      </trkpt>
      <trkpt lat="45.3034" lon="6.14769">
        <ele>2522</ele>
        <time>2021-08-25T19:27:19Z</time>
      </trkpt>
      <trkpt lat="45.3024" lon="6.1472">
        <ele>2578</ele>
        <time>2021-08-25T19:29:40Z</time>
      </trkpt>
      <trkpt lat="45.30029" lon="6.14574">
        <ele>2626</ele>
        <time>2021-08-25T19:34:53Z</time>
      </trkpt>
      <trkpt lat="45.2993" lon="6.1456">
        <ele>2656</ele>
        <time>2021-08-25T19:37:06Z</time>
      </trkpt>
      <trkpt lat="45.29869" lon="6.1455">
        <ele>2651</ele>
        <time>2021-08-25T19:38:28Z</time>
      </trkpt>
      <trkpt lat="45.29796" lon="6.14451">
        <ele>2676</ele>
        <time>2021-08-25T19:40:43Z</time>
      </trkpt>
      <trkpt lat="45.29754" lon="6.1431">
        <ele>2734</ele>
        <time>2021-08-25T19:43:06Z</time>
      </trkpt>
      <trkpt lat="45.29716" lon="6.14255">
        <ele>2751</ele>
        <time>2021-08-25T19:44:19Z</time>
      </trkpt>
      <trkpt lat="45.29643" lon="6.14151">
        <ele>2713</ele>
        <time>2021-08-25T19:46:37Z</time>
      </trkpt>
      <trkpt lat="45.29584" lon="6.14026">
        <ele>2666</ele>
        <time>2021-08-25T19:48:58Z</time>
      </trkpt>
      <trkpt lat="45.2951" lon="6.13966">
        <ele>2645</ele>
        <time>2021-08-25T19:50:52Z</time>
      </trkpt>
      <trkpt lat="45.29448" lon="6.1385">
        <ele>2617</ele>
        <time>2021-08-25T19:53:08Z</time>
      </trkpt>
      <trkpt lat="45.29413" lon="6.13668">
        <ele>2538</ele>
        <time>2021-08-25T19:56:05Z</time>
      </trkpt>
      <trkpt lat="45.29375" lon="6.13517">
        <ele>2499</ele>
        <time>2021-08-25T19:58:36Z</time>
      </trkpt>
      <trkpt lat="45.29271" lon="6.13292">
        <ele>2462</ele>
        <time>2021-08-25T20:02:49Z</time>
      </trkpt>
      <trkpt lat="45.29226" lon="6.13244">
        <ele>2470</ele>
        <time>2021-08-25T20:04:04Z</time>
      </trkpt>
      <trkpt lat="45.29215" lon="6.13176">
        <ele>2469</ele>
        <time>2021-08-25T20:05:09Z</time>
      </trkpt>
      <trkpt lat="45.2921" lon="6.12987">
        <ele>2417</ele>
        <time>2021-08-25T20:08:07Z</time>
      </trkpt>
      <trkpt lat="45.29154" lon="6.12794">
        <ele>2339</ele>
        <time>2021-08-25T20:11:23Z</time>
      </trkpt>
      <trkpt lat="45.29091" lon="6.12565">
        <ele>2289</ele>
        <time>2021-08-25T20:15:14Z</time>
      </trkpt>
      <trkpt lat="45.29039" lon="6.12298">
        <ele>2274</ele>
        <time>2021-08-25T20:19:34Z</time>
      </trkpt>
      <trkpt lat="45.28881" lon="6.11783">
        <ele>2132</ele>
        <time>2021-08-25T20:28:21Z</time>
      </trkpt>
      <trkpt lat="45.28989" lon="6.11607">
        <ele>2080</ele>
        <time>2021-08-25T20:32:00Z</time>
      </trkpt>
      <trkpt lat="45.29049" lon="6.11412">
        <ele>2020</ele>
        <time>2021-08-25T20:35:20Z</time>
      </trkpt>
      <trkpt lat="45.29125" lon="6.11277">
        <ele>1980</ele>
        <time>2021-08-25T20:38:03Z</time>
      </trkpt>
      <trkpt lat="45.29214" lon="6.11178">
        <ele>1934</ele>
        <time>2021-08-25T20:40:33Z</time>
      </trkpt>
      <trkpt lat="45.29263" lon="6.10991">
        <ele>1885</ele>
        <time>2021-08-25T20:43:41Z</time>
      </trkpt>
      <trkpt lat="45.29292" lon="6.10778">
        <ele>1845</ele>
        <time>2021-08-25T20:47:04Z</time>
      </trkpt>
      <trkpt lat="45.29314" lon="6.10715">
        <ele>1836</ele>
        <time>2021-08-25T20:48:10Z</time>
      </trkpt>
      <trkpt lat="45.2934" lon="6.10709">
        <ele>1833</ele>
        <time>2021-08-25T20:48:46Z</time>
      </trkpt>
      <trkpt lat="45.29368" lon="6.1072">
        <ele>1835</ele>
        <time>2021-08-25T20:49:24Z</time>
      </trkpt>
    </trkseg>
  </trk>
</gpx>